Huvudsida
METAR-TAF:

METAR-TAF

Flygplatser :

Al Bahah, Saudiarabien

latitud: 20-18N, longitud: 041-38E, höjd: 1652 m

Aktuellt väderrapport

Denna rapport gjordes för 20 minuter sedan, klockan 01:00 UTC
Vind 13 kt från nord/nordväst
Temperatur 26°C
Fuktighet 32%
Tryck 1018 hPa
Sikt 10 km eller mer
Inga moln under 1 500 m eller inga cumulonimbus

METAR: OEBA 190100Z 33013KT CAVOK 26/08 Q1018 NOSIG

Tid: 04:20 (01:20 UTC)

Väderprognos

Denna rapport gjordes för 2 timmar och 20 minuter sedan, klockan 23:00 UTC
Prognos gäller från 19 kl. 00 UTC till 20 kl. 06 UTC
Vind 12 kt från nord/nordväst
Sikt 10 km eller mer
Få moln på en höjd av 3000 ft
Blir
från 19 kl. 12 UTC till 19 kl. 14 UTC
Vind 12 kt från väst

TAF: OEBA 182300Z 1900/2006 33012KT 9999 FEW030 BECMG 1912/1914 28012KT

Aktuella väderrapporter och prognoser från 4000 flygplatser (METAR- och TAF-rapporter).

De tillgängliga stationerna syns som gula och röda prickar på kartan.

För musen över prickarna för att se namnen på stationerna.

Klicka sedan för att få väderrapporter och prognoser.

För att ändra kartan: Klicka på de gröna knapparna med ett svart kors på för att zooma in; den gröna knappen med ett streck på för att zooma ut; eller på de gröna pilarna för angränsande kartor.


METAR-TAF: